Time;durP1;ratioP1;P1;durP2;ratioP2;P2;SDS_P1;SDS_P2;PMS_P1;PMS_P2;Temp;Humidity;BMP_temperature;BMP_pressure;BME280_temperature;BME280_humidity;BME280_pressure;Samples;Min_cycle;Max_cycle;Signal;HPM_P1;HPM_P2
2021/09/28 00:00:09;;;;;;;7.80;5.92;;;;;;;8.58;100.00;100138.98;1792887;80;20935;-58
2021/09/28 00:02:40;;;;;;;9.30;6.35;;;;;;;8.56;100.00;100140.25;1825705;78;20809;-58
2021/09/28 00:05:07;;;;;;;8.35;6.45;;;;;;;8.54;100.00;100143.14;1825276;78;21018;-58
2021/09/28 00:07:34;;;;;;;9.33;6.95;;;;;;;8.53;100.00;100136.70;1825680;78;20810;-58
2021/09/28 00:10:02;;;;;;;9.50;6.33;;;;;;;8.49;100.00;100140.33;1825578;78;20859;-58
2021/09/28 00:12:30;;;;;;;16.48;6.47;;;;;;;8.49;100.00;100143.53;1825126;78;20987;-58
2021/09/28 00:14:56;;;;;;;9.00;6.47;;;;;;;8.50;100.00;100149.17;1825426;78;20983;-58
2021/09/28 00:17:24;;;;;;;12.20;7.62;;;;;;;8.47;100.00;100147.76;1825622;78;20876;-58
2021/09/28 00:19:51;;;;;;;9.08;6.75;;;;;;;8.44;100.00;100150.08;1825377;78;20903;-58
2021/09/28 00:22:17;;;;;;;9.73;6.40;;;;;;;8.42;100.00;100153.50;1825824;78;20889;-58
2021/09/28 00:24:44;;;;;;;10.45;6.55;;;;;;;8.40;100.00;100144.34;1825514;77;20898;-58
2021/09/28 00:27:12;;;;;;;13.80;7.65;;;;;;;8.38;100.00;100147.77;1825805;78;20832;-58
2021/09/28 00:29:39;;;;;;;6.67;5.78;;;;;;;8.34;100.00;100138.55;1825452;78;21115;-58
2021/09/28 00:32:07;;;;;;;9.48;7.28;;;;;;;8.33;100.00;100147.62;1789268;80;21408;-58
2021/09/28 00:34:36;;;;;;;12.00;6.70;;;;;;;8.31;100.00;100145.69;1792686;80;20861;-58
2021/09/28 00:37:04;;;;;;;10.98;7.03;;;;;;;8.29;100.00;100145.91;1825775;78;20949;-58
2021/09/28 00:39:30;;;;;;;17.92;7.55;;;;;;;8.28;100.00;100148.30;1789389;80;20846;-58
2021/09/28 00:41:57;;;;;;;21.23;9.93;;;;;;;8.28;100.00;100139.42;1792638;80;21119;-58
2021/09/28 00:44:38;;;;;;;18.42;9.28;;;;;;;8.28;100.00;100146.11;1825642;78;21308;-58
2021/09/28 00:47:08;;;;;;;18.07;10.90;;;;;;;8.27;100.00;100143.97;1825904;78;20875;-58
2021/09/28 00:49:35;;;;;;;15.10;9.50;;;;;;;8.24;100.00;100139.59;1825072;78;20975;-58
2021/09/28 00:52:02;;;;;;;19.10;9.68;;;;;;;8.23;100.00;100137.45;1825399;78;20856;-58
2021/09/28 00:54:28;;;;;;;17.85;9.28;;;;;;;8.22;100.00;100142.48;1825542;78;21209;-58
2021/09/28 00:56:55;;;;;;;18.42;10.32;;;;;;;8.20;100.00;100136.54;1825651;78;20962;-58
2021/09/28 00:59:21;;;;;;;14.43;8.58;;;;;;;8.19;100.00;100138.12;1825634;78;20928;-58
2021/09/28 01:01:48;;;;;;;12.18;7.08;;;;;;;8.18;100.00;100139.95;1825612;78;20950;-58
2021/09/28 01:04:16;;;;;;;16.10;7.25;;;;;;;8.18;100.00;100138.61;1825772;78;20928;-58
2021/09/28 01:06:44;;;;;;;;;;;;;;;8.18;100.00;100141.29;1828453;78;21060;-58
2021/09/28 01:09:11;;;;;;;8.78;6.92;;;;;;;8.16;100.00;100138.05;1825647;77;20123;-58
2021/09/28 01:11:39;;;;;;;10.20;6.67;;;;;;;8.14;100.00;100146.80;1825760;78;20893;-58
2021/09/28 01:14:08;;;;;;;13.72;6.35;;;;;;;8.14;100.00;100144.13;1825443;78;20934;-58
2021/09/28 01:16:34;;;;;;;8.38;5.97;;;;;;;8.12;100.00;100148.35;1826161;78;20884;-58
2021/09/28 01:19:01;;;;;;;10.08;5.95;;;;;;;8.13;100.00;100150.50;1825610;78;21085;-58
2021/09/28 01:21:28;;;;;;;12.80;6.28;;;;;;;8.13;100.00;100139.80;1825693;78;21047;-58
2021/09/28 01:23:55;;;;;;;12.03;5.70;;;;;;;8.11;100.00;100142.72;1787351;79;20980;-58
2021/09/28 01:26:25;;;;;;;12.25;5.85;;;;;;;8.10;100.00;100143.74;1805431;79;21397;-58
2021/09/28 01:28:55;;;;;;;7.33;5.53;;;;;;;8.09;100.00;100142.65;1805385;79;20846;-58
2021/09/28 01:31:23;;;;;;;6.33;5.70;;;;;;;8.07;100.00;100140.71;1805376;79;21105;-58
2021/09/28 01:33:52;;;;;;;10.43;5.50;;;;;;;8.08;100.00;100142.33;1805276;79;21506;-58
2021/09/28 01:36:19;;;;;;;7.58;6.30;;;;;;;8.06;100.00;100137.73;1805088;79;20896;-58
2021/09/28 01:38:45;;;;;;;11.20;6.78;;;;;;;8.06;100.00;100140.40;1804999;79;20972;-58
2021/09/28 01:41:13;;;;;;;9.60;7.28;;;;;;;8.07;100.00;100138.04;1805267;78;20912;-58
2021/09/28 01:43:41;;;;;;;;;;;;;;;8.06;100.00;100135.05;1807950;79;20791;-58
2021/09/28 01:46:07;;;;;;;9.58;6.20;;;;;;;8.07;100.00;100140.19;1804868;79;21733;-58
2021/09/28 01:48:52;;;;;;;9.73;6.20;;;;;;;8.04;100.00;100140.64;1807276;79;20853;-58
2021/09/28 01:51:19;;;;;;;10.40;7.03;;;;;;;8.04;100.00;100140.64;1803561;79;20901;-58
2021/09/28 01:53:47;;;;;;;10.45;7.62;;;;;;;8.02;100.00;100137.37;1805129;78;26237;-58
2021/09/28 01:56:25;;;;;;;12.28;8.25;;;;;;;8.01;100.00;100138.91;1805066;79;21074;-58
2021/09/28 01:58:55;;;;;;;11.83;8.63;;;;;;;7.98;100.00;100138.84;1805202;78;21023;-58
2021/09/28 02:01:22;;;;;;;16.10;9.68;;;;;;;7.95;100.00;100140.11;1773631;79;21011;-58
2021/09/28 02:03:48;;;;;;;18.65;9.48;;;;;;;7.92;100.00;100134.40;1805274;78;20943;-58
2021/09/28 02:06:19;;;;;;;15.77;9.77;;;;;;;7.87;100.00;100138.26;1804640;79;20984;-59
2021/09/28 02:08:46;;;;;;;13.40;8.23;;;;;;;7.81;100.00;100134.59;1804528;79;21061;-59
2021/09/28 02:11:12;;;;;;;15.55;10.05;;;;;;;7.75;100.00;100132.82;1804782;79;20832;-58
2021/09/28 02:13:39;;;;;;;14.63;9.85;;;;;;;7.68;100.00;100130.73;1805247;79;20937;-58
2021/09/28 02:16:08;;;;;;;17.90;10.80;;;;;;;7.64;100.00;100137.54;1805293;79;20952;-58
2021/09/28 02:18:35;;;;;;;16.55;10.63;;;;;;;7.57;100.00;100138.12;1805213;79;20989;-58
2021/09/28 02:21:02;;;;;;;20.17;10.55;;;;;;;7.51;100.00;100140.63;1805267;79;21470;-58
2021/09/28 02:23:30;;;;;;;25.57;12.15;;;;;;;7.44;100.00;100135.05;1805234;79;20906;-58
2021/09/28 02:25:57;;;;;;;23.77;11.15;;;;;;;7.35;100.00;100133.69;1810279;77;20988;-58
2021/09/28 02:28:23;;;;;;;17.85;11.12;;;;;;;7.24;100.00;100137.89;1810733;79;20893;-58
2021/09/28 02:30:52;;;;;;;17.92;11.05;;;;;;;7.14;100.00;100136.23;1810508;79;20875;-58
2021/09/28 02:33:18;;;;;;;19.23;11.63;;;;;;;7.03;100.00;100141.73;1810363;79;21121;-58
2021/09/28 02:35:45;;;;;;;30.25;12.65;;;;;;;6.96;100.00;100146.32;1810486;79;20972;-58
2021/09/28 02:38:12;;;;;;;18.75;12.13;;;;;;;6.87;100.00;100147.08;1810748;79;21387;-58
2021/09/28 02:40:39;;;;;;;20.10;11.45;;;;;;;6.77;100.00;100147.55;1810632;79;20939;-59
2021/09/28 02:43:07;;;;;;;19.12;11.90;;;;;;;6.70;100.00;100146.77;1810610;79;20897;-58
2021/09/28 02:45:33;;;;;;;22.20;13.08;;;;;;;6.62;100.00;100145.69;1809720;78;21096;-58
2021/09/28 02:48:00;;;;;;;28.32;12.35;;;;;;;6.56;100.00;100142.52;1809943;79;20952;-59
2021/09/28 02:50:27;;;;;;;28.65;13.10;;;;;;;6.48;100.00;100139.59;1810631;79;20949;-59
2021/09/28 02:52:53;;;;;;;19.32;12.33;;;;;;;6.44;100.00;100144.55;1810246;79;20961;-59
2021/09/28 02:55:20;;;;;;;18.42;11.68;;;;;;;6.46;100.00;100143.50;1810555;78;20936;-58
2021/09/28 02:57:46;;;;;;;21.27;12.63;;;;;;;6.45;100.00;100145.36;1810129;79;21057;-59
2021/09/28 03:00:15;;;;;;;16.73;12.15;;;;;;;6.44;100.00;100141.03;1809780;78;20892;-59
2021/09/28 03:02:41;;;;;;;19.67;11.97;;;;;;;6.44;100.00;100144.55;1810629;79;20846;-59
2021/09/28 03:05:09;;;;;;;22.93;13.25;;;;;;;6.45;100.00;100149.36;1810065;78;20896;-58
2021/09/28 03:07:36;;;;;;;22.62;13.68;;;;;;;6.42;100.00;100149.27;1810534;79;21498;-59
2021/09/28 03:10:04;;;;;;;26.07;14.05;;;;;;;6.43;100.00;100158.89;1810471;79;21465;-59
2021/09/28 03:12:32;;;;;;;23.22;15.23;;;;;;;6.41;100.00;100148.13;1810482;79;20936;-59
2021/09/28 03:15:00;;;;;;;32.80;16.65;;;;;;;6.37;100.00;100155.75;1810384;79;20832;-59
2021/09/28 03:17:28;;;;;;;24.65;15.98;;;;;;;6.33;100.00;100155.05;1788035;79;21438;-58
2021/09/28 03:19:56;;;;;;;30.43;16.32;;;;;;;6.27;100.00;100152.72;1810489;79;21419;-59
2021/09/28 03:22:23;;;;;;;27.37;16.65;;;;;;;6.19;100.00;100154.27;1810628;79;21463;-59
2021/09/28 03:24:49;;;;;;;33.40;16.15;;;;;;;6.18;100.00;100148.64;1810520;79;20974;-59
2021/09/28 03:27:15;;;;;;;28.47;17.98;;;;;;;6.17;100.00;100154.98;1811856;79;21445;-59
2021/09/28 03:29:44;;;;;;;38.10;21.10;;;;;;;6.16;100.00;100151.50;1811619;78;21327;-59
2021/09/28 03:32:10;;;;;;;36.63;22.05;;;;;;;6.18;100.00;100153.97;1811775;79;20913;-59
2021/09/28 03:34:37;;;;;;;40.23;17.80;;;;;;;6.17;100.00;100160.31;1811334;79;21099;-59
2021/09/28 03:37:04;;;;;;;29.20;15.25;;;;;;;6.17;100.00;100160.31;1811690;79;20817;-59
2021/09/28 03:39:32;;;;;;;26.87;14.73;;;;;;;6.15;100.00;100158.37;1811593;79;20860;-59
2021/09/28 03:42:00;;;;;;;29.27;14.25;;;;;;;6.14;100.00;100162.08;1811429;77;21297;-58
2021/09/28 03:44:27;;;;;;;21.10;13.30;;;;;;;6.10;100.00;100164.84;1789266;79;21437;-59
2021/09/28 03:46:53;;;;;;;22.93;14.03;;;;;;;6.13;100.00;100162.59;1811918;79;21080;-59
2021/09/28 03:49:20;;;;;;;16.55;11.90;;;;;;;6.18;100.00;100161.45;1811567;78;20999;-58
2021/09/28 03:51:46;;;;;;;14.47;10.93;;;;;;;6.25;100.00;100161.44;1811818;79;21394;-58
2021/09/28 03:54:13;;;;;;;16.75;11.60;;;;;;;6.33;100.00;100159.05;1811987;79;20908;-59
2021/09/28 03:56:41;;;;;;;12.00;10.17;;;;;;;6.40;100.00;100157.17;1811992;79;20986;-58
2021/09/28 03:59:07;;;;;;;14.15;11.95;;;;;;;6.44;100.00;100159.21;1811583;78;21858;-59
2021/09/28 04:01:34;;;;;;;13.10;10.43;;;;;;;6.49;100.00;100159.07;1811929;79;21366;-58
2021/09/28 04:04:02;;;;;;;14.60;11.33;;;;;;;6.53;100.00;100157.62;1811816;79;21355;-59
2021/09/28 04:06:29;;;;;;;13.95;11.43;;;;;;;6.53;100.00;100157.62;1812071;79;21214;-58
2021/09/28 04:08:56;;;;;;;14.15;11.15;;;;;;;6.54;100.00;100164.09;1811676;79;21057;-58
2021/09/28 04:11:22;;;;;;;16.37;12.07;;;;;;;6.51;100.00;100159.16;1811331;77;21088;-58
2021/09/28 04:13:49;;;;;;;17.48;12.80;;;;;;;6.54;100.00;100166.77;1812135;79;20997;-58
2021/09/28 04:16:16;;;;;;;18.70;14.85;;;;;;;6.57;100.00;100168.99;1812251;79;20951;-59
2021/09/28 04:18:45;;;;;;;17.92;11.90;;;;;;;6.61;100.00;100169.37;1811489;79;20903;-60
2021/09/28 04:21:13;;;;;;;19.55;12.88;;;;;;;6.60;100.00;100168.56;1812006;78;20899;-59
2021/09/28 04:23:40;;;;;;;19.92;10.93;;;;;;;6.58;100.00;100172.47;1812265;79;21908;-60
2021/09/28 04:26:07;;;;;;;24.85;12.23;;;;;;;6.55;100.00;100168.91;1806905;78;20904;-60
2021/09/28 04:28:35;;;;;;;31.37;12.43;;;;;;;6.60;100.00;100180.56;1805489;79;20909;-59
2021/09/28 04:31:02;;;;;;;15.23;11.33;;;;;;;6.59;100.00;100182.94;1805697;79;20877;-59
2021/09/28 04:33:30;;;;;;;21.57;11.83;;;;;;;6.59;100.00;100184.28;1805717;79;20936;-60
2021/09/28 04:35:57;;;;;;;13.53;11.15;;;;;;;6.60;100.00;100183.75;1805419;79;21142;-59
2021/09/28 04:38:23;;;;;;;16.35;10.40;;;;;;;6.63;100.00;100181.47;1748157;81;21343;-59
2021/09/28 04:40:51;;;;;;;11.85;8.65;;;;;;;6.62;100.00;100187.84;1805398;79;21435;-57
2021/09/28 04:43:17;;;;;;;8.45;7.62;;;;;;;6.58;100.00;100186.63;1805526;79;20924;-60
2021/09/28 04:45:44;;;;;;;11.60;10.00;;;;;;;6.48;100.00;100186.78;1780273;79;20979;-60
2021/09/28 04:48:10;;;;;;;19.42;9.95;;;;;;;6.43;100.00;100185.55;1804781;79;21121;-58
2021/09/28 04:50:37;;;;;;;32.58;9.60;;;;;;;6.45;100.00;100192.02;1804509;79;21496;-58
2021/09/28 04:53:04;;;;;;;8.68;7.78;;;;;;;6.44;100.00;100198.37;1805533;79;21305;-58
2021/09/28 04:55:31;;;;;;;10.80;7.83;;;;;;;6.35;100.00;100190.32;1805514;79;20892;-58
2021/09/28 04:57:58;;;;;;;16.05;8.85;;;;;;;6.30;100.00;100192.80;1805595;79;20854;-58
2021/09/28 05:00:24;;;;;;;10.08;7.75;;;;;;;6.30;100.00;100193.61;1805393;78;21111;-60
2021/09/28 05:02:51;;;;;;;10.13;8.60;;;;;;;6.33;100.00;100191.05;1805416;79;20810;-58
2021/09/28 05:05:17;;;;;;;12.00;8.60;;;;;;;6.34;100.00;100194.00;1805706;79;20864;-57
2021/09/28 05:07:44;;;;;;;16.73;8.65;;;;;;;6.38;100.00;100197.38;1805492;79;21004;-58
2021/09/28 05:10:11;;;;;;;23.80;9.98;;;;;;;6.39;100.00;100196.36;1805341;79;20856;-58
2021/09/28 05:12:38;;;;;;;10.72;7.80;;;;;;;6.38;100.00;100195.23;1805441;79;21101;-58
2021/09/28 05:15:06;;;;;;;7.80;7.05;;;;;;;6.37;100.00;100193.57;1804873;79;20986;-58
2021/09/28 05:17:35;;;;;;;9.05;7.08;;;;;;;6.36;100.00;100195.42;1805401;79;20850;-58
2021/09/28 05:20:04;;;;;;;8.78;7.05;;;;;;;6.37;100.00;100196.23;1805442;79;20868;-58
2021/09/28 05:22:32;;;;;;;7.75;6.95;;;;;;;6.39;100.00;100193.70;1780788;79;20853;-59
2021/09/28 05:25:01;;;;;;;12.68;8.30;;;;;;;6.44;100.00;100192.55;1805871;78;21092;-59
2021/09/28 05:27:30;;;;;;;8.85;7.53;;;;;;;6.49;100.00;100196.41;1769613;80;21476;-59
2021/09/28 05:29:58;;;;;;;;;;;;;;;6.60;100.00;100198.42;1806123;79;20944;-58
2021/09/28 05:32:28;;;;;;;12.03;8.80;;;;;;;6.77;100.00;100196.09;1781129;80;20462;-58
2021/09/28 05:34:57;;;;;;;9.20;8.20;;;;;;;6.85;100.00;100202.51;1780937;80;21519;-58
2021/09/28 05:37:25;;;;;;;8.60;7.15;;;;;;;6.78;100.00;100199.05;1781304;80;21119;-58
2021/09/28 05:39:54;;;;;;;25.10;9.50;;;;;;;6.77;100.00;100206.25;1840051;78;20948;-58
2021/09/28 05:42:22;;;;;;;15.15;9.43;;;;;;;6.80;100.00;100208.48;1804146;77;20978;-58
2021/09/28 05:44:51;;;;;;;;;;;;;;;6.78;100.00;100211.88;1836731;78;20977;-58
2021/09/28 05:47:22;;;;;;;11.25;7.95;;;;;;;6.76;100.00;100210.45;1834310;78;20440;-58
2021/09/28 05:49:52;;;;;;;11.85;8.18;;;;;;;6.82;100.00;100216.28;1810410;78;21124;-58
2021/09/28 05:52:23;;;;;;;13.90;8.25;;;;;;;6.83;100.00;100221.39;1781211;80;20905;-58
2021/09/28 05:54:53;;;;;;;20.90;15.45;;;;;;;6.90;100.00;100220.55;1772816;79;20881;-60
2021/09/28 05:57:23;;;;;;;12.07;9.45;;;;;;;6.92;100.00;100227.84;1782721;79;20981;-60
2021/09/28 05:59:54;;;;;;;8.38;6.33;;;;;;;6.92;100.00;100235.32;1799007;79;21414;-59
2021/09/28 06:02:25;;;;;;;11.05;8.18;;;;;;;6.91;100.00;100236.36;1785133;79;21171;-59
2021/09/28 06:04:54;;;;;;;14.38;7.10;;;;;;;6.82;100.00;100242.45;1790231;79;20890;-58
2021/09/28 06:07:23;;;;;;;10.78;8.38;;;;;;;6.72;100.00;100240.75;1789450;79;21395;-59
2021/09/28 06:09:52;;;;;;;10.20;7.30;;;;;;;6.70;100.00;100244.14;1789969;79;21364;-59
2021/09/28 06:12:23;;;;;;;7.08;6.37;;;;;;;6.66;100.00;100246.91;1788392;79;20944;-59
2021/09/28 06:14:52;;;;;;;7.60;6.85;;;;;;;6.60;100.00;100252.59;1771157;81;21102;-58
2021/09/28 06:17:18;;;;;;;9.88;7.20;;;;;;;6.59;100.00;100247.45;1784000;79;20948;-58
2021/09/28 06:19:46;;;;;;;11.18;7.33;;;;;;;6.61;100.00;100247.58;1776067;80;21432;-59
2021/09/28 06:22:14;;;;;;;23.10;11.07;;;;;;;6.60;100.00;100255.25;1771105;81;20944;-58
2021/09/28 06:24:41;;;;;;;14.60;8.78;;;;;;;6.75;100.00;100265.67;1773793;80;20917;-60
2021/09/28 06:27:08;;;;;;;9.93;7.65;;;;;;;6.84;100.00;100262.26;1782751;80;21121;-58
2021/09/28 06:29:35;;;;;;;15.65;10.23;;;;;;;6.84;100.00;100259.06;1783398;79;21487;-59
2021/09/28 06:32:01;;;;;;;12.40;9.63;;;;;;;6.90;100.00;100265.40;1791368;78;20908;-59
2021/09/28 06:34:29;;;;;;;10.23;7.78;;;;;;;6.93;100.00;100272.16;1777902;78;21028;-60
2021/09/28 06:36:56;;;;;;;11.35;9.30;;;;;;;7.02;100.00;100272.23;1778056;78;21020;-59
2021/09/28 06:39:22;;;;;;;12.88;10.58;;;;;;;7.08;100.00;100261.53;1777787;80;21543;-59
2021/09/28 06:41:49;;;;;;;11.53;9.83;;;;;;;7.17;100.00;100269.28;1784222;80;20969;-58
2021/09/28 06:44:15;;;;;;;9.55;8.13;;;;;;;7.18;100.00;100274.91;1781505;80;21210;-59
2021/09/28 06:46:42;;;;;;;23.22;14.18;;;;;;;7.19;100.00;100273.89;1763636;80;20990;-59
2021/09/28 06:49:09;;;;;;;11.90;9.80;;;;;;;7.18;100.00;100272.23;1753992;81;20983;-59
2021/09/28 06:51:36;;;;;;;14.58;9.78;;;;;;;7.19;100.00;100273.38;1761644;78;21190;-59
2021/09/28 06:54:03;;;;;;;9.85;8.85;;;;;;;7.19;100.00;100281.38;1768821;81;20904;-59
2021/09/28 06:56:29;;;;;;;10.75;8.13;;;;;;;7.09;100.00;100279.69;1768958;81;21013;-59
2021/09/28 06:58:57;;;;;;;11.85;9.18;;;;;;;6.99;100.00;100286.01;1768786;80;21008;-58
2021/09/28 07:01:25;;;;;;;13.43;9.45;;;;;;;6.94;100.00;100283.16;1768853;81;20945;-59
2021/09/28 07:03:53;;;;;;;15.80;11.70;;;;;;;6.99;100.00;100284.16;1799859;78;21891;-59
2021/09/28 07:06:21;;;;;;;13.40;10.50;;;;;;;7.09;100.00;100286.36;1784296;78;20940;-59
2021/09/28 07:08:49;;;;;;;10.63;9.33;;;;;;;7.13;100.00;100285.41;1795146;78;20937;-59
2021/09/28 07:11:19;;;;;;;11.75;10.10;;;;;;;7.20;100.00;100281.70;1778731;78;20969;-60
2021/09/28 07:13:48;;;;;;;20.08;15.68;;;;;;;7.21;100.00;100288.67;1812857;78;20913;-59
2021/09/28 07:16:18;;;;;;;14.60;10.00;;;;;;;7.28;100.00;100290.78;1795220;79;20889;-59
2021/09/28 07:18:46;;;;;;;16.97;12.15;;;;;;;7.33;100.00;100293.34;1779023;80;20834;-58
2021/09/28 07:21:12;;;;;;;15.63;12.60;;;;;;;7.39;100.00;100303.97;1782927;78;21035;-58
2021/09/28 07:23:39;;;;;;;13.50;11.22;;;;;;;7.49;100.00;100302.16;1790951;79;21466;-59
2021/09/28 07:26:08;;;;;;;13.08;10.85;;;;;;;7.50;100.00;100304.63;1792632;78;20902;-59
2021/09/28 07:28:36;;;;;;;13.53;10.90;;;;;;;7.63;100.00;100297.56;1784027;79;21118;-60
2021/09/28 07:31:04;;;;;;;13.43;10.13;;;;;;;7.68;100.00;100301.21;1787362;79;20925;-59
2021/09/28 07:33:31;;;;;;;12.70;10.72;;;;;;;7.85;100.00;100302.84;1790790;79;21464;-59
2021/09/28 07:35:58;;;;;;;18.57;12.73;;;;;;;7.85;100.00;100302.84;1775466;79;21040;-59
2021/09/28 07:38:25;;;;;;;18.45;13.65;;;;;;;7.99;100.00;100305.43;1782278;79;21472;-59
2021/09/28 07:40:52;;;;;;;19.82;13.93;;;;;;;7.99;100.00;100312.11;1779991;79;21107;-60
2021/09/28 07:43:19;;;;;;;23.67;16.42;;;;;;;8.07;100.00;100315.31;1779597;79;21587;-59
2021/09/28 07:45:45;;;;;;;18.12;12.98;;;;;;;8.19;100.00;100318.63;1807541;78;21029;-59
2021/09/28 07:48:13;;;;;;;11.57;10.13;;;;;;;8.37;100.00;100322.13;1782177;79;20983;-59
2021/09/28 07:50:40;;;;;;;17.00;10.68;;;;;;;8.29;100.00;100322.95;1815825;77;21032;-58
2021/09/28 07:53:07;;;;;;;12.68;9.65;;;;;;;8.31;100.00;100328.91;1775265;80;21162;-58
2021/09/28 07:55:36;;;;;;;15.23;10.88;;;;;;;8.50;100.00;100324.41;1771183;79;21717;-59
2021/09/28 07:58:04;;;;;;;18.57;10.58;;;;;;;8.72;100.00;100322.97;1772528;81;20944;-58
2021/09/28 08:00:32;;;;;;;18.90;11.78;;;;;;;9.16;100.00;100325.53;1792596;79;20962;-58
2021/09/28 08:02:59;;;;;;;14.35;10.38;;;;;;;9.40;100.00;100323.25;1810383;78;21006;-58
2021/09/28 08:05:26;;;;;;;11.08;8.38;;;;;;;9.57;100.00;100319.94;1797682;77;21495;-59
2021/09/28 08:07:53;;;;;;;14.80;10.60;;;;;;;9.97;100.00;100317.98;1834899;77;21403;-59
2021/09/28 08:10:19;;;;;;;21.07;11.15;;;;;;;10.69;100.00;100318.62;1835256;77;21360;-58
2021/09/28 08:12:47;;;;;;;10.70;8.40;;;;;;;11.25;100.00;100318.14;1819218;77;25966;-58
2021/09/28 08:15:16;;;;;;;12.63;9.80;;;;;;;11.62;100.00;100319.90;1835529;77;20959;-59
2021/09/28 08:17:42;;;;;;;9.60;8.35;;;;;;;11.78;100.00;100319.63;1783865;78;21134;-58
2021/09/28 08:20:16;;;;;;;10.35;8.40;;;;;;;12.13;100.00;100324.02;1792742;78;20945;-58
2021/09/28 08:22:41;;;;;;;8.48;7.65;;;;;;;12.40;100.00;100329.00;1872156;76;20917;-59
2021/09/28 08:25:11;;;;;;;10.38;7.47;;;;;;;12.15;100.00;100323.22;1825921;76;21005;-59
2021/09/28 08:30:23;;;;;;;11.88;6.20;;;;;;;12.70;100.00;100323.77;1867730;75;21163;-59
2021/09/28 08:32:49;;;;;;;7.37;6.28;;;;;;;12.33;100.00;100347.73;1876535;75;20991;-59
2021/09/28 08:35:16;;;;;;;7.55;6.47;;;;;;;12.14;100.00;100346.63;1858765;75;20977;-59
2021/09/28 08:37:44;;;;;;;;;;;;;;;12.31;100.00;100347.16;1872727;75;21023;-59
2021/09/28 08:40:13;;;;;;;12.33;8.75;;;;;;;12.48;100.00;100344.45;1857175;77;20111;-58
2021/09/28 08:42:41;;;;;;;25.27;15.80;;;;;;;12.90;100.00;100341.27;1856769;75;21044;-58
2021/09/28 08:45:09;;;;;;;25.23;16.35;;;;;;;12.90;100.00;100346.11;1868472;75;20932;-58
2021/09/28 08:47:44;;;;;;;8.68;7.75;;;;;;;13.21;100.00;100350.55;1864681;75;20948;-59
2021/09/28 08:50:18;;;;;;;10.48;7.90;;;;;;;13.49;100.00;100348.99;1859685;75;20988;-59
2021/09/28 08:52:47;;;;;;;13.50;9.33;;;;;;;13.60;100.00;100347.23;1855072;75;20889;-59
2021/09/28 08:55:14;;;;;;;13.13;8.28;;;;;;;13.82;100.00;100352.58;1849776;75;21097;-59
2021/09/28 08:57:41;;;;;;;9.90;7.67;;;;;;;14.31;100.00;100349.74;1864111;75;20932;-59
2021/09/28 09:00:21;;;;;;;8.40;7.50;;;;;;;14.48;100.00;100344.73;1849153;75;20984;-59
2021/09/28 09:02:49;;;;;;;11.70;8.88;;;;;;;14.10;100.00;100343.91;1807512;79;20965;-59
2021/09/28 09:05:17;;;;;;;12.37;8.80;;;;;;;14.31;100.00;100349.74;1788567;80;21043;-59
2021/09/28 09:08:05;;;;;;;16.10;10.90;;;;;;;14.60;100.00;100346.73;1845952;75;21189;-60
2021/09/28 09:10:35;;;;;;;9.58;7.95;;;;;;;15.09;100.00;100352.36;1848877;75;21429;-59
2021/09/28 09:13:02;;;;;;;16.35;8.40;;;;;;;15.06;100.00;100344.78;1828217;77;21497;-59
2021/09/28 09:15:34;;;;;;;14.65;7.40;;;;;;;15.17;100.00;100347.27;1862223;75;20948;-59
2021/09/28 09:18:04;;;;;;;19.07;9.68;;;;;;;15.21;100.00;100352.95;1852738;75;20930;-58
2021/09/28 09:20:42;;;;;;;10.53;5.55;;;;;;;15.25;100.00;100347.84;1852191;75;21118;-60
2021/09/28 09:23:27;;;;;;;13.58;8.60;;;;;;;15.42;94.69;100357.90;1847214;75;21038;-59
2021/09/28 09:26:16;;;;;;;11.48;8.65;;;;;;;14.81;98.24;100355.75;1853440;75;21344;-60
2021/09/28 09:28:52;;;;;;;9.48;6.60;;;;;;;14.81;99.28;100353.59;1849738;75;20953;-60
2021/09/28 09:31:36;;;;;;;10.65;7.12;;;;;;;15.03;96.18;100356.14;1816540;77;20985;-61
2021/09/28 09:34:17;;;;;;;6.05;5.12;;;;;;;15.03;96.18;100356.14;1810102;78;21117;-59
2021/09/28 09:36:59;;;;;;;9.03;6.00;;;;;;;14.86;95.13;100357.67;1820603;78;20925;-58
2021/09/28 09:39:28;;;;;;;11.28;6.22;;;;;;;15.06;98.38;100361.81;1818470;78;21411;-60
2021/09/28 09:42:05;;;;;;;10.25;4.92;;;;;;;15.06;98.38;100361.81;1788604;77;21001;-59
2021/09/28 09:44:32;;;;;;;10.72;5.75;;;;;;;15.28;93.13;100357.58;1809039;78;20966;-60
2021/09/28 09:47:00;;;;;;;8.43;5.90;;;;;;;15.65;93.17;100358.78;1803632;78;21059;-59
2021/09/28 09:49:31;;;;;;;12.70;5.83;;;;;;;15.68;90.80;100358.78;1826904;77;21014;-59
2021/09/28 09:52:06;;;;;;;9.08;4.90;;;;;;;15.86;89.38;100354.77;1850398;77;20940;-59
2021/09/28 09:54:33;;;;;;;7.62;5.90;;;;;;;15.41;88.12;100355.74;1842839;77;21004;-59
2021/09/28 09:57:04;;;;;;;8.93;4.97;;;;;;;14.77;94.58;100349.23;1850021;75;21004;-60
2021/09/28 09:59:31;;;;;;;11.10;5.62;;;;;;;14.30;99.28;100353.50;1812647;77;21109;-60
2021/09/28 10:01:57;;;;;;;8.68;5.70;;;;;;;14.14;100.00;100349.88;1813843;77;21047;-60
2021/09/28 10:04:24;;;;;;;11.10;5.78;;;;;;;13.83;100.00;100350.69;1784319;80;21015;-59
2021/09/28 10:06:54;;;;;;;8.73;5.75;;;;;;;13.54;100.00;100353.62;1783750;79;21584;-60
2021/09/28 10:09:34;;;;;;;17.27;10.23;;;;;;;13.41;100.00;100352.16;1763732;79;21465;-60
2021/09/28 10:12:06;;;;;;;10.55;7.60;;;;;;;13.41;100.00;100352.16;1784686;78;21418;-59
2021/09/28 10:14:42;;;;;;;10.43;6.25;;;;;;;13.47;100.00;100353.85;1873214;75;20934;-59
2021/09/28 10:17:38;;;;;;;10.58;7.30;;;;;;;13.26;100.00;100349.27;1814022;78;20850;-59
2021/09/28 10:20:03;;;;;;;13.80;6.40;;;;;;;13.23;100.00;100360.55;1795615;78;21395;-59
2021/09/28 10:22:52;;;;;;;12.88;6.83;;;;;;;13.06;100.00;100360.61;1806090;77;21090;-59
2021/09/28 10:25:23;;;;;;;12.40;7.22;;;;;;;13.14;100.00;100364.75;1811868;77;21095;-59
2021/09/28 10:28:15;;;;;;;12.58;6.55;;;;;;;13.08;100.00;100351.21;1792694;79;21008;-59
2021/09/28 10:30:43;;;;;;;7.95;4.83;;;;;;;13.02;100.00;100366.20;1710359;83;20979;-59
2021/09/28 10:33:26;;;;;;;9.75;5.83;;;;;;;13.04;100.00;100356.81;1706597;82;20988;-59
2021/09/28 10:36:10;;;;;;;14.05;6.08;;;;;;;13.23;100.00;100360.55;1713199;82;21048;-59
2021/09/28 10:38:42;;;;;;;9.70;5.25;;;;;;;13.25;100.00;100362.44;1712073;82;21097;-59
2021/09/28 10:41:30;;;;;;;13.08;6.05;;;;;;;13.21;93.85;100358.09;1709645;83;20992;-60
2021/09/28 10:44:26;;;;;;;15.50;6.70;;;;;;;13.28;98.30;100357.41;1710074;83;20966;-58
2021/09/28 10:46:53;;;;;;;11.45;6.47;;;;;;;13.38;98.26;100360.75;1706317;82;20916;-61
2021/09/28 10:49:29;;;;;;;11.22;7.03;;;;;;;13.49;99.17;100358.44;1711098;82;20994;-60
2021/09/28 10:52:25;;;;;;;14.70;5.80;;;;;;;13.63;98.53;100356.16;1705140;82;21138;-60
2021/09/28 10:55:10;;;;;;;16.05;5.80;;;;;;;13.63;94.77;100358.05;1701168;82;21033;-61
2021/09/28 10:58:09;;;;;;;19.52;5.55;;;;;;;13.44;90.49;100352.18;1709532;81;20975;-60
2021/09/28 11:00:48;;;;;;;14.83;4.97;;;;;;;13.50;89.07;100356.58;1726249;79;21400;-61
2021/09/28 11:03:16;;;;;;;20.60;6.30;;;;;;;13.40;87.47;100353.73;1781626;79;20916;-61
2021/09/28 11:05:59;;;;;;;15.30;5.50;;;;;;;13.36;85.18;100354.80;1787799;79;21094;-61
2021/09/28 11:08:26;;;;;;;15.45;5.87;;;;;;;13.37;87.44;100351.02;1731957;80;21012;-61
2021/09/28 11:10:58;;;;;;;12.50;5.62;;;;;;;13.44;87.25;100353.53;1782095;79;20869;-60
2021/09/28 11:13:39;;;;;;;10.32;5.65;;;;;;;13.45;84.83;100355.17;1788604;79;20988;-61
2021/09/28 11:16:10;;;;;;;20.10;7.33;;;;;;;13.52;86.35;100354.41;1790145;79;21023;-61
2021/09/28 11:18:39;;;;;;;22.02;6.85;;;;;;;13.62;90.55;100351.84;1785783;79;21114;-60
2021/09/28 11:21:11;;;;;;;21.65;5.95;;;;;;;13.55;93.37;100359.83;1780409;79;20944;-61
2021/09/28 11:23:41;;;;;;;15.45;5.17;;;;;;;13.43;92.75;100355.41;1787379;79;21004;-61
2021/09/28 11:26:08;;;;;;;16.20;5.83;;;;;;;13.38;95.25;100353.20;1783287;79;20877;-61
2021/09/28 11:28:47;;;;;;;25.85;6.72;;;;;;;13.33;94.09;100356.66;1790914;79;21044;-61